Time;durP1;ratioP1;P1;durP2;ratioP2;P2;SDS_P1;SDS_P2;PMS_P1;PMS_P2;Temp;Humidity;BMP_temperature;BMP_pressure;BME280_temperature;BME280_humidity;BME280_pressure;Samples;Min_cycle;Max_cycle;Signal;HPM_P1;HPM_P2
2022/01/18 00:00:29;;;;;;;10.55;9.57;;;5.40;99.90;;;;;;5041720;28;20261;-83
2022/01/18 00:02:58;;;;;;;12.75;8.65;;;5.30;99.90;;;;;;5027526;28;20207;-83
2022/01/18 00:05:26;;;;;;;10.23;8.10;;;5.30;99.90;;;;;;5029893;28;20194;-85
2022/01/18 00:07:53;;;;;;;8.20;7.47;;;5.30;99.90;;;;;;5045746;28;20257;-83
2022/01/18 00:10:22;;;;;;;8.82;7.93;;;5.30;99.90;;;;;;5043120;28;20209;-82
2022/01/18 00:13:08;;;;;;;8.10;7.28;;;5.20;99.90;;;;;;5026075;28;20214;-81
2022/01/18 00:15:43;;;;;;;10.45;8.10;;;5.20;99.90;;;;;;5028495;28;20245;-81
2022/01/18 00:18:13;;;;;;;8.25;7.35;;;5.10;99.90;;;;;;5043628;28;20245;-84
2022/01/18 00:20:55;;;;;;;9.30;7.32;;;5.00;99.90;;;;;;5045130;28;20298;-84
2022/01/18 00:23:23;;;;;;;10.38;8.00;;;4.90;99.90;;;;;;5041048;28;20222;-81
2022/01/18 00:25:53;;;;;;;10.68;7.60;;;4.90;99.90;;;;;;5025551;28;20210;-82
2022/01/18 00:28:20;;;;;;;9.18;7.65;;;4.90;99.90;;;;;;5028675;28;20227;-82
2022/01/18 00:33:42;;;;;;;15.80;9.07;;;5.00;99.90;;;;;;5019960;28;20205;-83
2022/01/18 00:36:23;;;;;;;9.50;6.95;;;5.10;99.90;;;;;;5044374;28;20222;-82
2022/01/18 00:38:49;;;;;;;9.90;7.72;;;5.00;99.90;;;;;;5040877;28;20230;-82
2022/01/18 00:41:18;;;;;;;10.00;7.47;;;5.00;99.90;;;;;;5044897;28;20213;-83
2022/01/18 00:43:46;;;;;;;10.82;8.40;;;5.10;99.90;;;;;;5040718;28;20210;-83
2022/01/18 00:46:13;;;;;;;9.05;7.85;;;5.10;99.90;;;;;;5025551;28;20700;-82
2022/01/18 00:48:42;;;;;;;9.20;7.15;;;5.10;99.90;;;;;;5028717;28;20215;-83
2022/01/18 00:51:13;;;;;;;11.40;7.82;;;5.10;99.90;;;;;;5043117;28;20221;-85
2022/01/18 00:53:41;;;;;;;9.23;8.18;;;5.20;99.90;;;;;;5039859;28;20213;-83
2022/01/18 01:06:16;;;;;;;8.63;7.32;;;5.10;99.90;;;;;;5039638;28;20189;-83
2022/01/18 01:15:29;;;;;;;11.60;8.52;;;4.90;99.90;;;;;;5032531;28;20193;-82
2022/01/18 01:18:11;;;;;;;8.55;7.30;;;5.00;99.90;;;;;;5040450;28;20274;-82
2022/01/18 01:34:38;;;;;;;11.30;8.30;;;5.30;99.90;;;;;;5020336;28;20241;-81
2022/01/18 01:41:42;;;;;;;11.63;8.15;;;5.30;99.90;;;;;;5024191;28;20540;-80
2022/01/18 01:43:11;;;;;;;15.32;9.45;;;5.30;99.90;;;;;;5034964;28;20767;-82
2022/01/18 01:45:39;;;;;;;12.35;9.95;;;5.40;99.90;;;;;;5036981;28;20225;-82
2022/01/18 01:48:06;;;;;;;11.13;10.05;;;5.50;99.90;;;;;;5041014;28;20230;-82
2022/01/18 01:50:44;;;;;;;16.52;10.27;;;5.50;99.90;;;;;;5041064;28;20210;-82
2022/01/18 01:53:11;;;;;;;12.35;9.52;;;5.50;99.90;;;;;;5036390;28;20206;-83
2022/01/18 01:55:40;;;;;;;15.23;9.25;;;5.60;99.90;;;;;;5040771;28;20207;-82
2022/01/18 01:58:07;;;;;;;13.40;9.25;;;5.60;99.90;;;;;;5027493;28;20234;-82
2022/01/18 02:00:35;;;;;;;10.10;9.10;;;5.60;99.90;;;;;;5020388;28;20211;-82
2022/01/18 02:03:02;;;;;;;11.73;9.18;;;5.60;99.90;;;;;;5031391;28;20206;-82
2022/01/18 02:05:28;;;;;;;12.43;10.70;;;5.70;99.90;;;;;;5040461;28;20210;-82
2022/01/18 02:07:55;;;;;;;13.02;9.95;;;5.70;99.90;;;;;;5030491;28;20230;-83
2022/01/18 02:10:22;;;;;;;14.77;9.93;;;5.70;99.90;;;;;;5020875;28;20211;-82
2022/01/18 02:12:50;;;;;;;15.40;11.18;;;5.70;99.90;;;;;;5022693;28;20210;-83
2022/01/18 02:15:18;;;;;;;13.95;9.90;;;5.80;99.90;;;;;;5036776;28;20229;-82
2022/01/18 02:23:17;;;;;;;13.60;11.45;;;5.80;99.90;;;;;;5021259;28;20214;-83
2022/01/18 02:25:44;;;;;;;15.93;11.75;;;5.90;99.90;;;;;;5039515;28;20209;-83
2022/01/18 02:28:11;;;;;;;21.08;13.90;;;5.90;99.90;;;;;;5040948;28;20246;-83
2022/01/18 02:30:38;;;;;;;10.98;9.75;;;5.80;99.90;;;;;;5038749;28;20569;-83
2022/01/18 02:33:05;;;;;;;13.90;11.27;;;5.80;99.90;;;;;;5040516;28;20676;-83
2022/01/18 02:35:34;;;;;;;15.98;13.20;;;5.70;99.90;;;;;;5039880;28;20234;-83
2022/01/18 02:38:01;;;;;;;19.67;13.90;;;5.70;99.90;;;;;;5041724;28;20237;-83
2022/01/18 02:40:30;;;;;;;21.60;12.73;;;5.80;99.90;;;;;;5039642;28;20233;-83
2022/01/18 02:42:59;;;;;;;19.25;13.27;;;5.70;99.90;;;;;;5041014;28;20700;-82
2022/01/18 02:45:27;;;;;;;22.20;12.32;;;5.60;99.90;;;;;;5023115;28;20624;-83
2022/01/18 02:47:55;;;;;;;20.10;13.52;;;5.60;99.90;;;;;;5032009;28;20223;-82
2022/01/18 02:50:22;;;;;;;17.70;12.95;;;5.60;99.90;;;;;;5040167;28;20209;-82
2022/01/18 02:52:51;;;;;;;16.40;12.02;;;5.60;99.90;;;;;;5029788;28;20214;-82
2022/01/18 02:55:17;;;;;;;20.08;13.50;;;5.70;99.90;;;;;;5020358;28;20207;-82
2022/01/18 02:57:54;;;;;;;18.90;13.88;;;5.60;99.90;;;;;;5029586;28;20246;-83
2022/01/18 03:00:29;;;;;;;21.30;15.80;;;5.70;99.90;;;;;;5039627;28;20222;-82
2022/01/18 03:03:13;;;;;;;16.38;13.45;;;5.60;99.90;;;;;;5037804;28;20202;-83
2022/01/18 03:05:40;;;;;;;17.05;13.30;;;5.60;99.90;;;;;;5038998;28;20296;-82
2022/01/18 03:08:10;;;;;;;18.13;12.55;;;5.50;99.90;;;;;;5023198;28;20250;-82
2022/01/18 03:10:37;;;;;;;19.55;14.50;;;5.60;99.90;;;;;;5014307;28;20203;-82
2022/01/18 03:13:04;;;;;;;21.75;15.20;;;5.70;99.90;;;;;;5021148;28;20230;-81
2022/01/18 03:15:32;;;;;;;24.20;14.25;;;5.80;99.90;;;;;;5028557;28;20222;-82
2022/01/18 03:18:00;;;;;;;21.20;14.52;;;5.60;99.90;;;;;;5036639;28;20233;-82
2022/01/18 03:20:27;;;;;;;17.90;14.95;;;5.50;99.90;;;;;;5042661;28;20313;-81
2022/01/18 03:22:54;;;;;;;22.60;13.77;;;5.60;99.90;;;;;;5044658;28;20230;-81
2022/01/18 03:25:39;;;;;;;24.65;14.25;;;5.60;99.90;;;;;;5040804;28;20207;-83
2022/01/18 03:28:07;;;;;;;18.20;14.60;;;5.50;99.90;;;;;;5040273;28;20269;-83
2022/01/18 03:30:35;;;;;;;22.50;14.23;;;5.40;99.90;;;;;;5032147;28;20191;-82
2022/01/18 03:33:03;;;;;;;25.55;16.67;;;5.40;99.90;;;;;;5017607;28;20214;-82
2022/01/18 03:35:30;;;;;;;24.45;16.42;;;5.30;99.90;;;;;;5024645;28;20209;-83
2022/01/18 03:37:56;;;;;;;22.52;14.65;;;5.40;99.90;;;;;;5035700;28;20838;-83
2022/01/18 03:40:25;;;;;;;20.27;13.85;;;5.50;99.90;;;;;;5030494;28;20215;-83
2022/01/18 03:42:54;;;;;;;20.42;13.75;;;5.60;99.90;;;;;;5020742;28;20574;-81
2022/01/18 03:45:25;;;;;;;19.65;14.00;;;5.60;99.90;;;;;;5033558;28;20229;-83
2022/01/18 03:47:54;;;;;;;18.23;14.80;;;5.70;99.90;;;;;;5034838;28;20628;-83
2022/01/18 03:50:21;;;;;;;20.42;15.13;;;5.80;99.90;;;;;;5033293;28;20202;-84
2022/01/18 03:52:48;;;;;;;16.65;13.68;;;5.90;99.90;;;;;;5034478;28;20572;-83
2022/01/18 03:55:17;;;;;;;18.95;12.90;;;6.00;99.90;;;;;;5032179;28;20210;-83
2022/01/18 03:57:45;;;;;;;21.65;14.45;;;5.70;99.90;;;;;;5027560;28;20226;-83
2022/01/18 04:00:15;;;;;;;21.48;14.52;;;5.50;99.90;;;;;;5032587;28;20230;-83
2022/01/18 04:02:42;;;;;;;25.38;16.02;;;5.40;99.90;;;;;;5014733;28;20210;-81
2022/01/18 04:05:10;;;;;;;23.52;16.25;;;5.60;99.90;;;;;;5014090;28;20206;-81
2022/01/18 04:07:37;;;;;;;21.50;15.13;;;5.70;99.90;;;;;;5014381;28;20238;-82
2022/01/18 04:10:05;;;;;;;21.98;14.95;;;5.60;99.90;;;;;;5014364;28;20211;-80
2022/01/18 04:12:34;;;;;;;24.23;15.82;;;5.50;99.90;;;;;;5014453;28;20304;-81
2022/01/18 04:15:02;;;;;;;25.35;16.10;;;5.30;99.90;;;;;;5013755;28;20215;-80
2022/01/18 04:17:48;;;;;;;25.50;17.23;;;5.10;99.90;;;;;;5014044;28;20322;-83
2022/01/18 04:25:58;;;;;;;23.38;15.35;;;5.20;99.90;;;;;;5032973;28;20742;-82
2022/01/18 04:28:34;;;;;;;29.70;20.38;;;5.20;99.90;;;;;;5033802;28;20324;-81
2022/01/18 04:31:02;;;;;;;29.38;17.55;;;5.20;99.90;;;;;;5018048;28;20191;-82
2022/01/18 04:33:29;;;;;;;28.48;21.88;;;5.20;99.90;;;;;;5017756;28;20363;-83
2022/01/18 04:35:56;;;;;;;27.83;17.75;;;5.10;99.90;;;;;;5017938;28;20213;-82
2022/01/18 04:38:23;;;;;;;24.65;16.52;;;5.10;99.90;;;;;;5017679;28;20223;-80
2022/01/18 04:40:50;;;;;;;23.75;18.30;;;4.80;99.90;;;;;;5031228;28;20248;-82
2022/01/18 04:43:22;;;;;;;30.65;19.27;;;4.60;99.90;;;;;;5037096;28;20205;-80
2022/01/18 04:48:35;;;;;;;28.17;19.83;;;4.50;99.90;;;;;;5037242;28;20220;-83
2022/01/18 04:51:06;;;;;;;28.67;19.58;;;4.40;99.90;;;;;;5020233;28;20286;-83
2022/01/18 04:53:34;;;;;;;28.45;18.65;;;4.40;99.90;;;;;;5016354;28;20207;-83
2022/01/18 04:56:06;;;;;;;25.15;17.95;;;4.40;99.90;;;;;;5025984;28;20198;-83
2022/01/18 04:58:34;;;;;;;26.80;18.23;;;4.30;99.90;;;;;;5036174;28;20256;-83
2022/01/18 05:01:02;;;;;;;28.92;18.98;;;4.30;99.90;;;;;;5021474;28;20223;-82
2022/01/18 05:03:30;;;;;;;32.88;18.35;;;4.30;99.90;;;;;;5035411;28;20578;-81
2022/01/18 05:06:06;;;;;;;31.98;17.85;;;4.30;99.90;;;;;;5027736;28;20206;-81
2022/01/18 05:08:33;;;;;;;24.33;18.30;;;4.40;99.90;;;;;;5035561;28;20722;-81
2022/01/18 05:11:00;;;;;;;34.28;17.08;;;4.50;99.90;;;;;;5035743;28;20210;-81
2022/01/18 05:13:48;;;;;;;27.88;18.10;;;4.50;99.90;;;;;;5035507;28;20564;-82
2022/01/18 05:16:40;;;;;;;28.10;17.02;;;4.40;99.90;;;;;;5035469;28;20661;-81
2022/01/18 05:19:14;;;;;;;36.85;18.80;;;4.40;99.90;;;;;;5039438;28;20730;-83
2022/01/18 05:24:30;;;;;;;26.73;17.13;;;4.40;99.90;;;;;;5037656;28;20221;-82
2022/01/18 05:26:58;;;;;;;30.30;18.08;;;4.60;99.90;;;;;;5037516;28;20235;-82
2022/01/18 05:29:25;;;;;;;25.55;17.35;;;4.60;99.90;;;;;;5021860;28;20209;-83
2022/01/18 05:31:52;;;;;;;28.38;18.27;;;4.50;99.90;;;;;;5017222;28;20211;-83
2022/01/18 05:34:19;;;;;;;33.17;20.10;;;4.60;99.90;;;;;;5031486;28;20206;-82
2022/01/18 05:36:48;;;;;;;25.42;16.25;;;4.70;99.90;;;;;;5037731;28;20202;-82
2022/01/18 05:39:14;;;;;;;27.95;17.67;;;4.60;99.90;;;;;;5038442;28;20309;-82
2022/01/18 05:41:43;;;;;;;28.98;19.63;;;4.70;99.90;;;;;;5038530;28;20206;-82
2022/01/18 05:44:09;;;;;;;31.48;18.83;;;4.50;99.90;;;;;;5038897;28;20205;-82
2022/01/18 05:46:36;;;;;;;34.40;18.77;;;4.50;99.90;;;;;;5055454;28;20210;-82
2022/01/18 05:49:04;;;;;;;27.17;15.95;;;4.60;99.90;;;;;;5056925;28;20236;-82
2022/01/18 05:51:31;;;;;;;27.17;15.98;;;4.50;99.90;;;;;;5054894;28;20675;-81
2022/01/18 05:53:59;;;;;;;36.50;19.35;;;4.50;99.90;;;;;;5034466;28;20206;-81
2022/01/18 05:56:26;;;;;;;35.83;20.30;;;4.50;99.90;;;;;;5015676;28;20213;-81
2022/01/18 05:58:55;;;;;;;33.50;20.75;;;4.60;99.90;;;;;;5015642;28;20226;-81
2022/01/18 06:01:26;;;;;;;27.83;18.77;;;4.70;99.90;;;;;;5014376;28;20275;-81
2022/01/18 06:04:08;;;;;;;37.70;20.70;;;4.80;99.90;;;;;;5015536;28;20210;-81
2022/01/18 06:06:53;;;;;;;33.55;17.50;;;4.80;99.90;;;;;;5022952;28;20202;-81
2022/01/18 06:09:22;;;;;;;39.35;16.17;;;4.80;99.90;;;;;;5034006;28;20254;-81
2022/01/18 06:11:49;;;;;;;33.55;20.85;;;4.60;99.90;;;;;;5023368;28;20211;-81
2022/01/18 06:14:16;;;;;;;31.13;16.92;;;4.60;99.90;;;;;;5014257;28;20580;-81
2022/01/18 06:16:43;;;;;;;31.50;21.52;;;4.60;99.90;;;;;;5017858;28;20217;-81
2022/01/18 06:19:11;;;;;;;29.25;19.45;;;4.50;99.90;;;;;;5033695;28;20232;-81
2022/01/18 06:21:38;;;;;;;28.60;18.50;;;4.60;99.90;;;;;;5025356;28;20227;-81
2022/01/18 06:24:07;;;;;;;31.45;20.05;;;4.60;99.90;;;;;;5013881;28;20214;-81
2022/01/18 06:26:35;;;;;;;30.40;19.23;;;4.50;99.90;;;;;;5020937;28;20238;-81
2022/01/18 06:29:02;;;;;;;27.13;19.27;;;4.60;99.90;;;;;;5034040;28;20248;-81
2022/01/18 06:31:29;;;;;;;36.97;19.73;;;4.60;99.90;;;;;;5031245;28;20198;-80
2022/01/18 06:33:56;;;;;;;35.15;19.95;;;4.60;99.90;;;;;;5019155;28;20233;-80
2022/01/18 06:36:23;;;;;;;42.88;23.73;;;4.70;99.90;;;;;;5020750;28;20199;-82
2022/01/18 06:38:49;;;;;;;35.20;21.40;;;4.80;99.90;;;;;;5037419;28;20741;-81
2022/01/18 06:41:16;;;;;;;32.60;19.90;;;4.80;99.90;;;;;;5041423;28;20225;-80
2022/01/18 06:43:44;;;;;;;29.98;18.77;;;4.90;99.90;;;;;;5045752;28;20207;-81
2022/01/18 06:46:11;;;;;;;33.45;17.27;;;4.90;99.90;;;;;;5043662;28;20202;-81
2022/01/18 06:48:38;;;;;;;24.10;17.38;;;4.90;99.90;;;;;;5044876;28;20229;-82
2022/01/18 06:51:05;;;;;;;25.85;18.67;;;4.90;99.90;;;;;;5045526;28;20190;-82
2022/01/18 06:53:35;;;;;;;32.75;20.52;;;4.90;99.90;;;;;;5045752;28;20201;-81
2022/01/18 06:56:02;;;;;;;41.78;19.15;;;4.70;99.90;;;;;;5042327;28;20295;-81
2022/01/18 06:58:29;;;;;;;32.03;20.35;;;4.70;99.90;;;;;;5042422;28;20229;-83
2022/01/18 07:00:58;;;;;;;32.22;20.08;;;4.60;99.90;;;;;;5044972;28;20236;-78
2022/01/18 07:03:24;;;;;;;29.00;16.50;;;4.60;99.90;;;;;;5049045;28;20259;-82
2022/01/18 07:05:51;;;;;;;34.53;23.58;;;4.70;99.90;;;;;;5040857;28;20440;-81
2022/01/18 07:08:18;;;;;;;28.13;19.45;;;4.70;99.90;;;;;;5037180;28;20617;-80
2022/01/18 07:21:42;;;;;;;31.05;20.00;;;4.80;99.90;;;;;;4950527;29;20713;-86
2022/01/18 07:39:01;;;;;;;29.38;17.05;;;5.10;99.90;;;;;;4817238;29;20641;-85
2022/01/18 07:58:34;;;;;;;22.38;15.60;;;5.50;99.90;;;;;;4804196;29;20263;-81
2022/01/18 08:01:01;;;;;;;30.98;18.67;;;5.60;99.90;;;;;;4981842;28;20236;-81
2022/01/18 08:03:29;;;;;;;22.88;14.85;;;5.40;99.90;;;;;;5034700;28;20217;-82
2022/01/18 08:05:56;;;;;;;25.20;14.88;;;5.50;99.90;;;;;;5046381;28;20408;-80
2022/01/18 08:08:22;;;;;;;22.83;15.13;;;5.50;99.90;;;;;;5040781;28;20233;-80
2022/01/18 08:10:49;;;;;;;22.80;16.75;;;5.50;99.90;;;;;;5025628;28;20648;-80
2022/01/18 08:13:16;;;;;;;25.88;16.35;;;5.60;99.90;;;;;;5023820;28;20211;-81
2022/01/18 08:15:56;;;;;;;29.77;17.40;;;5.70;99.90;;;;;;5022012;28;20206;-81
2022/01/18 08:18:23;;;;;;;25.60;13.88;;;5.40;99.90;;;;;;5023086;28;20643;-81
2022/01/18 08:20:49;;;;;;;22.75;15.60;;;5.50;99.90;;;;;;5020767;28;20230;-81
2022/01/18 08:23:16;;;;;;;21.05;14.02;;;5.50;99.90;;;;;;5020190;28;20214;-80
2022/01/18 08:25:44;;;;;;;23.02;16.30;;;5.40;99.90;;;;;;5027815;28;20206;-80
2022/01/18 08:28:11;;;;;;;21.33;15.70;;;5.40;99.90;;;;;;5038760;28;20241;-80
2022/01/18 08:30:38;;;;;;;22.30;15.70;;;5.20;99.90;;;;;;5041066;28;20210;-81
2022/01/18 08:33:06;;;;;;;29.88;14.68;;;5.10;99.90;;;;;;5040161;28;20234;-80
2022/01/18 08:35:33;;;;;;;18.88;12.70;;;5.10;99.90;;;;;;5040978;28;20225;-79
2022/01/18 08:38:00;;;;;;;27.90;15.57;;;5.10;99.90;;;;;;5044767;28;20763;-80
2022/01/18 08:40:27;;;;;;;20.45;12.85;;;5.20;99.90;;;;;;5043539;28;20266;-80
2022/01/18 08:42:53;;;;;;;21.90;14.98;;;5.20;99.90;;;;;;5044722;28;20206;-81
2022/01/18 08:45:20;;;;;;;27.00;16.30;;;5.30;99.90;;;;;;5044209;28;20206;-80
2022/01/18 08:47:47;;;;;;;22.13;15.00;;;5.40;99.90;;;;;;5044918;28;20257;-81
2022/01/18 08:50:17;;;;;;;28.65;17.25;;;5.60;99.90;;;;;;5046707;28;20301;-81
2022/01/18 08:52:44;;;;;;;23.50;16.35;;;5.60;99.90;;;;;;5037986;28;20203;-81
2022/01/18 08:55:11;;;;;;;28.63;17.58;;;5.70;99.90;;;;;;5047142;28;20211;-81
2022/01/18 08:57:38;;;;;;;25.30;15.85;;;5.80;99.90;;;;;;5035267;28;20229;-81
2022/01/18 09:00:08;;;;;;;21.63;17.45;;;5.60;99.90;;;;;;5037102;28;20445;-81
2022/01/18 09:02:35;;;;;;;27.25;19.40;;;5.70;99.90;;;;;;5041469;28;20654;-80
2022/01/18 09:05:02;;;;;;;19.88;17.13;;;5.80;99.90;;;;;;5024013;28;20207;-81
2022/01/18 09:07:32;;;;;;;27.05;17.48;;;5.90;99.90;;;;;;5022275;28;20231;-81
2022/01/18 09:10:05;;;;;;;26.33;16.42;;;5.80;99.90;;;;;;5055217;28;20213;-79
2022/01/18 09:12:32;;;;;;;25.98;17.17;;;5.70;99.90;;;;;;5057219;28;20201;-81
2022/01/18 09:15:00;;;;;;;23.13;17.17;;;5.70;99.90;;;;;;5056262;28;20221;-81
2022/01/18 09:17:28;;;;;;;23.33;16.88;;;5.60;99.90;;;;;;5055300;28;20234;-80
2022/01/18 09:19:54;;;;;;;23.63;14.73;;;5.50;99.90;;;;;;5049039;28;20202;-80
2022/01/18 09:22:21;;;;;;;20.75;15.27;;;5.70;99.90;;;;;;5040800;28;20230;-81
2022/01/18 09:24:49;;;;;;;21.17;14.57;;;5.60;99.90;;;;;;5041189;28;20217;-81
2022/01/18 09:27:17;;;;;;;21.38;14.82;;;5.70;99.90;;;;;;5041483;28;20226;-81
2022/01/18 09:32:26;;;;;;;21.48;16.58;;;6.10;99.90;;;;;;5030835;28;20503;-81
2022/01/18 09:34:53;;;;;;;18.52;14.45;;;6.40;99.90;;;;;;5022070;28;20211;-81
2022/01/18 09:37:20;;;;;;;20.05;15.52;;;6.60;99.90;;;;;;5037449;28;20226;-81
2022/01/18 09:39:48;;;;;;;17.92;12.52;;;6.70;99.90;;;;;;5039387;28;20667;-81
2022/01/18 09:42:18;;;;;;;17.00;11.77;;;7.00;99.90;;;;;;5023750;28;20574;-81
2022/01/18 09:44:47;;;;;;;12.02;9.40;;;7.20;99.90;;;;;;5020410;28;20298;-81
2022/01/18 09:47:14;;;;;;;11.57;9.95;;;7.40;99.90;;;;;;5034344;28;20748;-81
2022/01/18 09:49:41;;;;;;;11.57;9.55;;;7.50;99.90;;;;;;5061413;28;20216;-81
2022/01/18 09:52:08;;;;;;;12.88;8.98;;;7.70;99.90;;;;;;5063395;28;20205;-80
2022/01/18 09:54:34;;;;;;;12.15;9.15;;;7.90;99.90;;;;;;5061450;28;20612;-81
2022/01/18 09:57:03;;;;;;;12.43;10.70;;;7.90;99.90;;;;;;5050420;28;20228;-80
2022/01/18 09:59:29;;;;;;;14.93;11.93;;;7.90;99.90;;;;;;5040609;28;20206;-80
2022/01/18 10:01:56;;;;;;;16.25;12.98;;;7.90;99.90;;;;;;5031541;28;20692;-80
2022/01/18 10:04:30;;;;;;;17.95;9.10;;;7.70;99.90;;;;;;5039052;28;20209;-81
2022/01/18 10:06:58;;;;;;;11.40;9.00;;;7.70;99.90;;;;;;5022731;28;20206;-80
2022/01/18 10:12:56;;;;;;;11.27;9.38;;;7.60;99.90;;;;;;5043218;28;20206;-80
2022/01/18 10:15:22;;;;;;;17.45;11.45;;;7.70;99.90;;;;;;5037284;28;20213;-81
2022/01/18 10:17:49;;;;;;;15.13;12.07;;;7.70;99.90;;;;;;5033431;28;20441;-81
2022/01/18 10:20:20;;;;;;;14.18;11.27;;;7.90;99.90;;;;;;5037555;28;20555;-80
2022/01/18 10:22:49;;;;;;;13.02;9.48;;;8.10;99.90;;;;;;5036368;28;20222;-79
2022/01/18 10:25:18;;;;;;;14.07;10.00;;;8.40;99.90;;;;;;5037013;28;20578;-80
2022/01/18 10:27:47;;;;;;;12.73;9.00;;;8.60;99.90;;;;;;5034470;28;20323;-80
2022/01/18 10:30:22;;;;;;;16.00;12.27;;;8.90;99.90;;;;;;5037642;28;20203;-80
2022/01/18 10:33:08;;;;;;;13.05;10.93;;;9.20;99.90;;;;;;5037599;28;20203;-80
2022/01/18 10:35:34;;;;;;;12.38;8.98;;;9.30;99.90;;;;;;5036820;28;20235;-80
2022/01/18 10:38:01;;;;;;;14.13;9.32;;;9.40;99.90;;;;;;5022629;28;20231;-80
2022/01/18 10:40:28;;;;;;;16.60;11.97;;;9.50;99.90;;;;;;5020540;28;20209;-80
2022/01/18 10:43:01;;;;;;;10.93;8.63;;;9.60;99.90;;;;;;5023351;28;20489;-80
2022/01/18 10:45:33;;;;;;;16.80;12.73;;;9.70;99.90;;;;;;5021279;28;20218;-80
2022/01/18 10:48:10;;;;;;;14.65;11.98;;;9.60;99.90;;;;;;5039016;28;20227;-79
2022/01/18 10:50:39;;;;;;;17.08;10.55;;;9.60;99.90;;;;;;5036895;28;20214;-84
2022/01/18 10:53:15;;;;;;;12.60;10.48;;;9.50;99.90;;;;;;5039015;28;20216;-81
2022/01/18 10:55:43;;;;;;;15.33;11.33;;;9.60;99.90;;;;;;5037292;28;20681;-81
2022/01/18 10:58:11;;;;;;;13.77;9.90;;;9.60;99.90;;;;;;5019453;28;20888;-81
2022/01/18 11:00:39;;;;;;;17.17;11.02;;;9.50;99.90;;;;;;5019283;28;20215;-80
2022/01/18 11:03:06;;;;;;;15.30;8.70;;;9.40;99.90;;;;;;5039400;28;20573;-81
2022/01/18 11:05:37;;;;;;;12.60;11.15;;;9.30;99.90;;;;;;5039241;28;20221;-81
2022/01/18 11:08:06;;;;;;;9.23;8.20;;;9.20;99.90;;;;;;5038475;28;20234;-80
2022/01/18 11:10:34;;;;;;;10.45;8.30;;;9.20;99.90;;;;;;5034747;28;20194;-81
2022/01/18 11:13:04;;;;;;;12.48;9.77;;;9.20;99.90;;;;;;5038471;28;20230;-80
2022/01/18 11:15:32;;;;;;;9.20;8.30;;;9.30;99.90;;;;;;5027127;28;20218;-80
2022/01/18 11:18:03;;;;;;;7.63;6.30;;;9.50;99.90;;;;;;5023010;28;20225;-80
2022/01/18 11:20:33;;;;;;;10.05;7.15;;;9.60;99.90;;;;;;5048315;28;20204;-80
2022/01/18 11:23:00;;;;;;;7.40;5.85;;;9.70;99.90;;;;;;5058549;28;20230;-80
2022/01/18 11:25:28;;;;;;;8.30;7.30;;;9.80;99.90;;;;;;5042680;28;20672;-81
2022/01/18 11:27:57;;;;;;;6.33;5.20;;;9.90;99.90;;;;;;5038584;28;20481;-80
2022/01/18 11:30:32;;;;;;;8.50;4.75;;;10.30;99.90;;;;;;5038505;28;20554;-83
2022/01/18 11:33:06;;;;;;;10.47;6.10;;;10.90;99.90;;;;;;5041031;28;20207;-83
2022/01/18 11:39:35;;;;;;;11.23;6.80;;;12.70;98.10;;;;;;4942074;28;20468;-87
2022/01/18 11:42:16;;;;;;;8.03;7.20;;;13.80;95.10;;;;;;4943916;28;20450;-85
2022/01/18 11:44:45;;;;;;;8.20;7.37;;;14.60;93.30;;;;;;4952900;28;20986;-83
2022/01/18 11:47:12;;;;;;;6.83;6.03;;;14.90;91.10;;;;;;4958936;28;20471;-82
2022/01/18 11:49:48;;;;;;;8.67;6.80;;;14.30;91.10;;;;;;5017542;28;20450;-81
2022/01/18 11:52:35;;;;;;;8.33;7.53;;;14.10;91.80;;;;;;5021319;28;20481;-81
2022/01/18 11:55:03;;;;;;;13.00;7.80;;;14.40;90.50;;;;;;5038084;28;20488;-80
2022/01/18 11:57:37;;;;;;;9.27;7.40;;;14.00;90.50;;;;;;5027775;28;20471;-81
2022/01/18 12:00:30;;;;;;;11.80;7.30;;;13.70;90.50;;;;;;5040669;28;20450;-82
2022/01/18 12:03:16;;;;;;;7.17;6.57;;;13.00;91.00;;;;;;5032268;28;20463;-82
2022/01/18 12:05:45;;;;;;;8.30;6.63;;;12.50;91.60;;;;;;5029565;28;20812;-81
2022/01/18 12:08:30;;;;;;;10.00;7.77;;;12.10;92.30;;;;;;5037405;28;20472;-81
2022/01/18 12:10:57;;;;;;;10.17;6.47;;;11.70;93.00;;;;;;5038828;28;20809;-80
2022/01/18 12:13:27;;;;;;;6.53;5.60;;;11.30;93.70;;;;;;5026210;28;20452;-81
2022/01/18 12:15:56;;;;;;;9.93;6.83;;;10.90;93.50;;;;;;5031537;28;20478;-80
2022/01/18 12:18:25;;;;;;;9.70;5.90;;;10.50;93.80;;;;;;5035109;28;20479;-83
2022/01/18 12:20:54;;;;;;;7.30;6.57;;;10.50;94.70;;;;;;5025552;28;20446;-80
2022/01/18 12:23:24;;;;;;;7.32;5.13;;;10.20;95.00;;;;;;5032915;28;20442;-83
2022/01/18 12:25:58;;;;;;;6.65;5.55;;;10.00;95.40;;;;;;5038375;28;20233;-82
2022/01/18 12:28:49;;;;;;;6.25;5.45;;;9.80;96.60;;;;;;5041548;28;20242;-83
2022/01/18 12:32:22;;;;;;;11.27;6.18;;;9.50;96.90;;;;;;5032267;28;20210;-80
2022/01/18 12:34:52;;;;;;;9.13;6.30;;;9.30;97.40;;;;;;5026526;28;20239;-81
2022/01/18 12:37:48;;;;;;;7.03;5.07;;;9.20;97.90;;;;;;5033005;28;20306;-80
2022/01/18 12:40:31;;;;;;;8.93;6.15;;;9.10;98.40;;;;;;5025458;28;20199;-80
2022/01/18 12:45:46;;;;;;;9.00;5.43;;;8.90;98.20;;;;;;5047443;28;20647;-81
2022/01/18 12:48:14;;;;;;;8.20;6.28;;;8.80;98.60;;;;;;5042272;28;20233;-81
2022/01/18 12:50:44;;;;;;;8.27;6.65;;;8.80;98.80;;;;;;5030880;28;20227;-81
2022/01/18 12:53:14;;;;;;;7.60;6.78;;;8.80;98.90;;;;;;5043040;28;20219;-81
2022/01/18 12:55:45;;;;;;;5.68;4.70;;;8.70;99.30;;;;;;5033066;28;20200;-81
2022/01/18 12:58:17;;;;;;;10.25;5.85;;;9.50;99.90;;;;;;5034426;28;20243;-81
2022/01/18 13:00:46;;;;;;;7.53;4.83;;;10.40;97.60;;;;;;5044898;28;20206;-81
2022/01/18 13:03:21;;;;;;;6.67;6.00;;;11.60;95.60;;;;;;5031544;28;20487;-81
2022/01/18 13:05:50;;;;;;;6.17;5.50;;;12.70;94.00;;;;;;5057785;28;20451;-81
2022/01/18 13:08:21;;;;;;;9.23;6.20;;;13.50;92.10;;;;;;5069862;28;20471;-81
2022/01/18 13:10:50;;;;;;;4.90;4.40;;;14.70;91.10;;;;;;5060211;28;20453;-80
2022/01/18 13:13:21;;;;;;;5.70;4.17;;;15.50;87.60;;;;;;5038760;28;20481;-81
2022/01/18 13:16:07;;;;;;;5.30;4.90;;;15.80;84.30;;;;;;5048327;28;20453;-81
2022/01/18 13:26:55;;;;;;;5.47;4.97;;;12.60;90.10;;;;;;5048456;28;20461;-82
2022/01/18 13:29:24;;;;;;;5.07;4.40;;;12.20;90.60;;;;;;5034548;28;20473;-81
2022/01/18 13:32:02;;;;;;;6.30;4.43;;;11.60;91.00;;;;;;5038915;28;20504;-81
2022/01/18 13:34:33;;;;;;;7.90;5.17;;;11.20;91.80;;;;;;5048606;28;20515;-81
2022/01/18 13:37:03;;;;;;;4.37;3.93;;;10.80;92.40;;;;;;5047562;28;20465;-81
2022/01/18 13:39:36;;;;;;;4.47;3.85;;;10.20;93.20;;;;;;5047189;28;20453;-81
2022/01/18 13:42:04;;;;;;;4.30;3.63;;;9.60;94.40;;;;;;5036694;28;20203;-81
2022/01/18 13:44:32;;;;;;;5.68;3.92;;;9.20;95.60;;;;;;5039473;28;20538;-81
2022/01/18 13:47:13;;;;;;;6.53;3.55;;;8.80;96.30;;;;;;5045245;23;20234;-85
2022/01/18 13:49:40;;;;;;;6.03;3.40;;;8.70;97.20;;;;;;5064682;28;20226;-83
2022/01/18 13:52:08;;;;;;;3.72;3.35;;;8.30;97.60;;;;;;5068905;28;20222;-84
2022/01/18 13:54:48;;;;;;;3.70;3.35;;;8.30;98.00;;;;;;5068519;28;20281;-84
2022/01/18 13:57:15;;;;;;;5.53;3.70;;;8.30;98.30;;;;;;5066140;28;20231;-84
2022/01/18 13:59:43;;;;;;;4.55;3.70;;;8.20;98.50;;;;;;5051155;28;20201;-84
2022/01/18 14:02:14;;;;;;;4.40;3.58;;;8.30;98.70;;;;;;5063740;28;20195;-83
2022/01/18 14:04:41;;;;;;;5.20;3.13;;;8.10;98.60;;;;;;5057822;28;20206;-85
2022/01/18 14:07:08;;;;;;;3.03;2.60;;;8.00;98.90;;;;;;5073736;28;20214;-85
2022/01/18 14:09:36;;;;;;;4.53;3.22;;;8.00;99.20;;;;;;5070170;28;20212;-85
2022/01/18 14:12:06;;;;;;;3.42;3.20;;;8.00;99.30;;;;;;5056296;28;20214;-85
2022/01/18 14:14:34;;;;;;;4.80;4.40;;;7.90;99.20;;;;;;5060456;28;20198;-85
2022/01/18 14:17:04;;;;;;;3.80;3.50;;;7.90;99.50;;;;;;5066111;28;20285;-87
2022/01/18 14:19:32;;;;;;;4.78;3.03;;;7.70;99.60;;;;;;5048634;28;20443;-84
2022/01/18 14:22:02;;;;;;;4.82;3.05;;;7.80;99.80;;;;;;5065922;28;20197;-84
2022/01/18 14:24:38;;;;;;;8.43;3.05;;;8.10;99.90;;;;;;5055699;28;20197;-85
2022/01/18 14:27:09;;;;;;;5.38;3.45;;;8.60;99.90;;;;;;5068824;28;20249;-85
2022/01/18 14:29:52;;;;;;;5.40;2.30;;;9.10;99.00;;;;;;5065324;28;20206;-84
2022/01/18 14:32:27;;;;;;;3.25;2.97;;;9.50;97.80;;;;;;5050793;28;20227;-84
2022/01/18 14:34:59;;;;;;;3.08;2.75;;;9.50;96.80;;;;;;5056289;28;20584;-84
2022/01/18 14:37:38;;;;;;;2.75;2.47;;;9.30;96.30;;;;;;5054557;28;20314;-85
2022/01/18 14:40:07;;;;;;;6.10;3.08;;;9.20;96.20;;;;;;5052814;28;20206;-87
2022/01/18 14:42:44;;;;;;;3.17;2.83;;;9.00;96.20;;;;;;5060857;28;20210;-84
2022/01/18 14:45:31;;;;;;;3.88;3.13;;;9.00;96.20;;;;;;5053937;28;20198;-84
2022/01/18 14:47:59;;;;;;;4.75;3.75;;;8.90;96.50;;;;;;5047429;28;20230;-84
2022/01/18 14:50:27;;;;;;;3.25;2.50;;;8.80;96.70;;;;;;5066214;28;20251;-83
2022/01/18 14:52:55;;;;;;;3.22;2.67;;;8.70;96.90;;;;;;5060140;28;20254;-84
2022/01/18 14:55:23;;;;;;;3.55;3.20;;;8.70;97.10;;;;;;5042248;28;20230;-84